createdAt,value
2017-11-04T00:01:39.439Z,6.40
2017-11-04T00:04:06.906Z,6.40
2017-11-04T00:06:35.165Z,6.50
2017-11-04T00:09:03.517Z,6.50
2017-11-04T00:11:30.993Z,6.50
2017-11-04T00:13:58.487Z,6.50
2017-11-04T00:16:26.746Z,6.50
2017-11-04T00:18:55.001Z,6.40
2017-11-04T00:21:22.482Z,6.30
2017-11-04T00:23:49.958Z,6.30
2017-11-04T00:26:18.203Z,6.30
2017-11-04T00:28:45.680Z,6.30
2017-11-04T00:31:13.946Z,6.30
2017-11-04T00:33:41.433Z,6.30
2017-11-04T00:36:08.926Z,6.30
2017-11-04T00:38:36.400Z,6.30
2017-11-04T00:41:03.865Z,6.30
2017-11-04T00:43:31.352Z,6.30
2017-11-04T00:45:59.595Z,6.40
2017-11-04T00:48:27.077Z,6.40
2017-11-04T00:50:55.317Z,6.30
2017-11-04T00:53:22.807Z,6.30
2017-11-04T00:55:51.058Z,6.40
2017-11-04T00:58:18.542Z,6.30
2017-11-04T01:00:46.793Z,6.40
2017-11-04T01:03:14.276Z,6.30
2017-11-04T01:05:42.517Z,6.40
2017-11-04T01:08:10.011Z,6.30
2017-11-04T01:10:38.244Z,6.30
2017-11-04T01:13:05.751Z,6.30
2017-11-04T01:15:34.002Z,6.20
2017-11-04T01:18:01.480Z,6.20
2017-11-04T01:20:29.745Z,6.20
2017-11-04T01:22:58.023Z,6.20
2017-11-04T01:25:25.494Z,6.10
2017-11-04T01:27:53.750Z,6.20
2017-11-04T01:30:21.224Z,6.20
2017-11-04T01:32:49.485Z,6.30
2017-11-04T01:35:17.308Z,6.30
2017-11-04T01:37:44.781Z,6.20
2017-11-04T01:40:12.280Z,6.20
2017-11-04T01:42:40.516Z,6.30
2017-11-04T01:45:08.020Z,6.20
2017-11-04T01:47:36.316Z,6.30
2017-11-04T01:50:03.801Z,6.30
2017-11-04T01:52:32.047Z,6.20
2017-11-04T01:54:59.533Z,6.20
2017-11-04T01:57:27.034Z,6.20
2017-11-04T01:59:54.519Z,6.10
2017-11-04T02:02:21.993Z,6.10
2017-11-04T02:04:49.479Z,6.20
2017-11-04T02:07:16.967Z,6.20
2017-11-04T02:09:45.229Z,6.20
2017-11-04T02:12:12.699Z,6.20
2017-11-04T02:14:40.216Z,6.20
2017-11-04T02:17:07.679Z,6.20
2017-11-04T02:19:35.169Z,6.20
2017-11-04T02:22:02.680Z,6.30
2017-11-04T02:24:30.152Z,6.30
2017-11-04T02:26:57.640Z,6.30
2017-11-04T02:29:25.117Z,6.30
2017-11-04T02:31:53.389Z,6.20
2017-11-04T02:34:21.635Z,6.20
2017-11-04T02:36:49.131Z,6.20
2017-11-04T02:39:16.625Z,6.10
2017-11-04T02:41:44.130Z,6.20
2017-11-04T02:44:12.388Z,6.30
2017-11-04T02:46:39.892Z,6.30
2017-11-04T02:49:07.398Z,6.20
2017-11-04T02:51:34.889Z,6.20
2017-11-04T02:54:03.132Z,6.30
2017-11-04T02:56:30.716Z,6.20
2017-11-04T02:58:58.985Z,6.40
2017-11-04T03:01:26.468Z,6.30
2017-11-04T03:03:54.710Z,6.30
2017-11-04T03:06:22.198Z,6.30
2017-11-04T03:08:50.475Z,6.40
2017-11-04T03:11:18.793Z,6.40
2017-11-04T03:13:46.264Z,6.40
2017-11-04T03:16:13.742Z,6.50
2017-11-04T03:18:41.352Z,6.40
2017-11-04T03:21:08.835Z,6.40
2017-11-04T03:23:36.337Z,6.40
2017-11-04T03:26:04.577Z,6.50
2017-11-04T03:28:32.066Z,6.40
2017-11-04T03:30:59.536Z,6.40
2017-11-04T03:33:27.777Z,6.40
2017-11-04T03:35:56.489Z,6.50
2017-11-04T03:38:24.749Z,6.50
2017-11-04T03:40:52.222Z,6.40
2017-11-04T03:43:20.501Z,6.50
2017-11-04T03:45:49.742Z,6.50
2017-11-04T03:48:17.234Z,6.50
2017-11-04T03:50:45.549Z,6.50
2017-11-04T03:53:13.039Z,6.50
2017-11-04T03:55:40.517Z,6.60
2017-11-04T03:58:08.020Z,6.60
2017-11-04T04:00:35.507Z,6.60
2017-11-04T04:03:02.988Z,6.50
2017-11-04T04:05:30.473Z,6.50
2017-11-04T04:07:57.951Z,6.50
2017-11-04T04:10:26.201Z,6.60
2017-11-04T04:12:53.685Z,6.60
2017-11-04T04:15:21.936Z,6.70
2017-11-04T04:17:49.421Z,6.70
2017-11-04T04:20:16.915Z,6.70
2017-11-04T04:22:44.380Z,6.70
2017-11-04T04:25:11.880Z,6.70
2017-11-04T04:27:40.164Z,6.80
2017-11-04T04:30:08.438Z,6.80
2017-11-04T04:32:37.673Z,6.80
2017-11-04T04:35:05.934Z,6.80
2017-11-04T04:37:33.417Z,6.80
2017-11-04T04:40:00.925Z,6.80
2017-11-04T04:42:29.169Z,6.80
2017-11-04T04:44:56.652Z,6.80
2017-11-04T04:47:24.897Z,6.80
2017-11-04T04:49:52.405Z,6.80
2017-11-04T04:52:20.647Z,6.80
2017-11-04T04:54:48.148Z,6.80
2017-11-04T04:57:15.630Z,6.80
2017-11-04T04:59:43.117Z,6.90
2017-11-04T05:02:10.589Z,6.90
2017-11-04T05:04:38.086Z,6.90
2017-11-04T05:07:06.017Z,6.90
2017-11-04T05:09:34.277Z,6.90
2017-11-04T05:12:01.748Z,6.90
2017-11-04T05:14:29.233Z,6.90
2017-11-04T05:16:56.719Z,7.00
2017-11-04T05:19:24.206Z,6.80
2017-11-04T05:21:51.673Z,6.90
2017-11-04T05:24:20.681Z,6.90
2017-11-04T05:26:48.926Z,6.90
2017-11-04T05:29:16.928Z,6.90
2017-11-04T05:31:45.184Z,6.90
2017-11-04T05:34:12.656Z,6.90
2017-11-04T05:36:40.928Z,6.90
2017-11-04T05:39:08.429Z,6.90
2017-11-04T05:41:35.931Z,6.90
2017-11-04T05:44:03.430Z,7.00
2017-11-04T05:46:30.921Z,7.00
2017-11-04T05:48:58.417Z,7.10
2017-11-04T05:51:25.910Z,7.20
2017-11-04T05:53:53.935Z,7.20
2017-11-04T05:56:21.512Z,7.20
2017-11-04T05:58:48.993Z,7.20
2017-11-04T06:01:16.500Z,7.20
2017-11-04T06:03:43.989Z,7.20
2017-11-04T06:06:12.140Z,7.20
2017-11-04T06:08:39.727Z,7.20
2017-11-04T06:11:07.991Z,7.20
2017-11-04T06:13:36.238Z,7.20
2017-11-04T06:16:03.735Z,7.20
2017-11-04T06:18:31.992Z,7.20
2017-11-04T06:20:59.496Z,7.20
2017-11-04T06:23:27.031Z,7.20
2017-11-04T06:25:55.270Z,7.20
2017-11-04T06:28:22.765Z,7.20
2017-11-04T06:30:51.041Z,7.20
2017-11-04T06:33:19.314Z,7.20
2017-11-04T06:35:47.548Z,7.20
2017-11-04T06:38:15.041Z,7.20
2017-11-04T06:40:42.537Z,7.20
2017-11-04T06:43:10.059Z,7.20
2017-11-04T06:45:37.529Z,7.30
2017-11-04T06:48:05.825Z,7.30
2017-11-04T06:50:33.302Z,7.30
2017-11-04T06:53:00.814Z,7.30
2017-11-04T06:55:29.094Z,7.40
2017-11-04T06:57:57.361Z,7.50
2017-11-04T07:00:24.841Z,7.50
2017-11-04T07:02:52.334Z,7.60
2017-11-04T07:05:19.822Z,7.60
2017-11-04T07:07:48.100Z,7.70
2017-11-04T07:10:15.582Z,7.70
2017-11-04T07:12:43.832Z,7.70
2017-11-04T07:15:11.416Z,7.70
2017-11-04T07:17:39.659Z,7.80
2017-11-04T07:20:07.147Z,7.80
2017-11-04T07:22:35.395Z,7.80
2017-11-04T07:25:02.873Z,7.80
2017-11-04T07:27:30.358Z,7.80
2017-11-04T07:29:57.842Z,7.90
2017-11-04T07:32:25.351Z,7.90
2017-11-04T07:34:53.587Z,8.00
2017-11-04T07:37:21.057Z,8.00
2017-11-04T07:39:48.556Z,8.00
2017-11-04T07:42:16.816Z,8.10
2017-11-04T07:44:44.319Z,8.10
2017-11-04T07:47:11.797Z,8.20
2017-11-04T07:49:39.298Z,8.20
2017-11-04T07:52:07.541Z,8.30
2017-11-04T07:54:35.037Z,8.30
2017-11-04T07:57:03.297Z,8.40
2017-11-04T07:59:30.794Z,8.40
2017-11-04T08:01:58.274Z,8.60
2017-11-04T08:04:27.529Z,8.70
2017-11-04T08:06:56.777Z,8.80
2017-11-04T08:09:24.272Z,8.70
2017-11-04T08:11:51.736Z,8.80
2017-11-04T08:14:20.005Z,8.90
2017-11-04T08:16:48.257Z,9.00
2017-11-04T08:19:15.849Z,9.00
2017-11-04T08:21:44.132Z,9.10
2017-11-04T08:24:12.936Z,9.20
2017-11-04T08:26:40.425Z,9.20
2017-11-04T08:29:07.916Z,9.30
2017-11-04T08:31:36.912Z,9.40
2017-11-04T08:34:04.405Z,9.40
2017-11-04T08:36:31.921Z,9.40
2017-11-04T08:38:59.414Z,9.60
2017-11-04T08:41:26.897Z,9.60
2017-11-04T08:43:54.996Z,9.70
2017-11-04T08:46:22.505Z,9.70
2017-11-04T08:48:49.988Z,9.70
2017-11-04T08:51:21.293Z,9.80
2017-11-04T08:53:49.540Z,9.80
2017-11-04T08:56:17.033Z,9.80
2017-11-04T08:58:45.280Z,9.80
2017-11-04T09:01:12.769Z,9.80
2017-11-04T09:03:41.013Z,9.80
2017-11-04T09:06:08.500Z,9.80
2017-11-04T09:08:36.737Z,9.90
2017-11-04T09:11:04.234Z,9.90
2017-11-04T09:13:32.494Z,9.90
2017-11-04T09:16:00.759Z,9.90
2017-11-04T09:18:29.761Z,10.00
2017-11-04T09:21:03.115Z,10.00
2017-11-04T09:23:30.609Z,10.10
2017-11-04T09:25:58.892Z,10.20
2017-11-04T09:28:27.148Z,10.30
2017-11-04T09:30:54.685Z,10.20
2017-11-04T09:33:22.173Z,10.30
2017-11-04T09:35:49.650Z,10.30
2017-11-04T09:38:17.151Z,10.40
2017-11-04T09:40:44.642Z,10.40
2017-11-04T09:43:12.242Z,10.30
2017-11-04T09:45:40.481Z,10.30
2017-11-04T09:48:07.976Z,10.30
2017-11-04T09:50:36.237Z,10.30
2017-11-04T09:53:04.495Z,10.40
2017-11-04T09:55:32.002Z,10.40
2017-11-04T09:58:00.317Z,10.40
2017-11-04T10:00:28.549Z,10.50
2017-11-04T10:02:56.052Z,10.60
2017-11-04T10:05:23.599Z,10.70
2017-11-04T10:07:51.115Z,10.80
2017-11-04T10:10:19.037Z,10.80
2017-11-04T10:12:46.642Z,10.80
2017-11-04T10:15:14.897Z,11.00
2017-11-04T10:17:42.412Z,11.00
2017-11-04T10:20:09.897Z,11.10
2017-11-04T10:22:37.419Z,11.10
2017-11-04T10:25:04.897Z,11.20
2017-11-04T10:27:32.414Z,11.30
2017-11-04T10:29:59.903Z,11.40
2017-11-04T10:32:27.393Z,11.50
2017-11-04T10:34:54.884Z,11.60
2017-11-04T10:37:23.144Z,11.70
2017-11-04T10:39:52.004Z,11.80
2017-11-04T10:42:19.493Z,11.70
2017-11-04T10:44:47.760Z,11.80
2017-11-04T10:47:15.237Z,11.80
2017-11-04T10:49:43.493Z,12.00
2017-11-04T10:52:10.970Z,12.00
2017-11-04T10:54:39.215Z,12.10
2017-11-04T10:57:06.707Z,12.10
2017-11-04T10:59:34.971Z,12.20
2017-11-04T11:02:03.236Z,12.30
2017-11-04T11:04:30.739Z,12.30
2017-11-04T11:06:58.209Z,12.30
2017-11-04T11:09:26.778Z,12.40
2017-11-04T11:11:54.317Z,12.40
2017-11-04T11:14:22.568Z,12.50
2017-11-04T11:16:50.059Z,12.50
2017-11-04T11:19:17.600Z,12.60
2017-11-04T11:21:45.854Z,12.70
2017-11-04T11:24:13.359Z,12.70
2017-11-04T11:26:40.856Z,12.80
2017-11-04T11:29:09.280Z,12.90
2017-11-04T11:31:38.324Z,13.00
2017-11-04T11:34:05.832Z,13.00
2017-11-04T11:36:34.087Z,12.90
2017-11-04T11:39:01.596Z,12.90
2017-11-04T11:41:29.090Z,12.90
2017-11-04T11:43:56.786Z,12.90
2017-11-04T11:46:25.033Z,12.90
2017-11-04T11:48:52.552Z,12.90
2017-11-04T11:51:22.100Z,12.90
2017-11-04T11:53:49.582Z,12.90
2017-11-04T11:56:17.840Z,13.10
2017-11-04T11:58:46.101Z,13.10
2017-11-04T12:01:13.614Z,13.10
2017-11-04T12:03:41.086Z,13.10
2017-11-04T12:06:08.578Z,13.10
2017-11-04T12:08:36.051Z,13.10
2017-11-04T12:11:03.553Z,13.10
2017-11-04T12:13:33.129Z,13.00
2017-11-04T12:16:01.383Z,13.00
2017-11-04T12:18:29.857Z,13.10
2017-11-04T12:20:57.365Z,13.10
2017-11-04T12:23:24.852Z,13.10
2017-11-04T12:25:52.365Z,13.10
2017-11-04T12:28:21.418Z,13.20
2017-11-04T12:30:48.922Z,13.20
2017-11-04T12:33:17.172Z,13.30
2017-11-04T12:35:45.554Z,13.30
2017-11-04T12:38:13.048Z,13.30
2017-11-04T12:40:40.553Z,13.40
2017-11-04T12:43:08.034Z,13.40
2017-11-04T12:45:35.525Z,13.40
2017-11-04T12:48:03.007Z,13.40
2017-11-04T12:50:30.535Z,13.40
2017-11-04T12:52:58.024Z,13.50
2017-11-04T12:55:25.505Z,13.50
2017-11-04T12:57:53.014Z,13.60
2017-11-04T13:00:20.497Z,13.70
2017-11-04T13:02:48.000Z,13.80
2017-11-04T13:05:15.485Z,13.90
2017-11-04T13:07:42.959Z,14.00
2017-11-04T13:10:11.122Z,14.20
2017-11-04T13:12:38.609Z,14.20
2017-11-04T13:15:06.091Z,14.20
2017-11-04T13:17:33.573Z,14.30
2017-11-04T13:20:01.838Z,14.10
2017-11-04T13:22:29.334Z,14.10
2017-11-04T13:24:57.408Z,14.10
2017-11-04T13:27:25.720Z,14.20
2017-11-04T13:29:53.184Z,14.30
2017-11-04T13:32:20.670Z,14.40
2017-11-04T13:34:48.930Z,14.40
2017-11-04T13:37:16.506Z,14.30
2017-11-04T13:39:44.754Z,14.30
2017-11-04T13:42:12.249Z,14.30
2017-11-04T13:44:40.497Z,14.10
2017-11-04T13:47:07.969Z,14.10
2017-11-04T13:49:35.477Z,14.00
2017-11-04T13:52:02.954Z,14.00
2017-11-04T13:54:30.549Z,13.90
2017-11-04T13:56:58.809Z,13.90
2017-11-04T13:59:26.294Z,13.90
2017-11-04T14:01:54.531Z,14.00
2017-11-04T14:04:22.044Z,13.90
2017-11-04T14:06:49.512Z,14.00
2017-11-04T14:09:17.005Z,13.90
2017-11-04T14:11:45.400Z,14.00
2017-11-04T14:14:13.592Z,14.00
2017-11-04T14:16:42.287Z,13.90
2017-11-04T14:19:09.794Z,13.90
2017-11-04T14:21:37.271Z,13.80
2017-11-04T14:24:06.280Z,13.80
2017-11-04T14:26:34.521Z,13.70
2017-11-04T14:29:02.028Z,13.70
2017-11-04T14:31:30.262Z,13.80
2017-11-04T14:33:57.757Z,13.80
2017-11-04T14:36:26.014Z,13.80
2017-11-04T14:38:54.339Z,13.80
2017-11-04T14:41:21.813Z,13.80
2017-11-04T14:43:49.308Z,13.90
2017-11-04T14:46:16.788Z,13.70
2017-11-04T14:48:45.037Z,13.60
2017-11-04T14:51:13.280Z,13.40
2017-11-04T14:53:40.799Z,13.40
2017-11-04T14:56:09.325Z,13.20
2017-11-04T14:58:36.802Z,13.20
2017-11-04T15:01:04.290Z,13.20
2017-11-04T15:03:32.542Z,13.10
2017-11-04T15:06:00.407Z,13.10
2017-11-04T15:08:27.892Z,13.10
2017-11-04T15:10:56.137Z,13.00
2017-11-04T15:13:23.607Z,12.90
2017-11-04T15:15:51.084Z,12.90
2017-11-04T15:18:19.329Z,13.00
2017-11-04T15:20:46.829Z,13.00
2017-11-04T15:23:14.315Z,13.00
2017-11-04T15:25:41.808Z,13.00
2017-11-04T15:28:09.289Z,13.00
2017-11-04T15:30:37.547Z,12.70
2017-11-04T15:33:05.033Z,12.70
2017-11-04T15:35:33.293Z,12.70
2017-11-04T15:38:01.533Z,12.50
2017-11-04T15:40:29.117Z,12.50
2017-11-04T15:42:56.582Z,12.40
2017-11-04T15:45:24.913Z,12.20
2017-11-04T15:47:52.991Z,12.20
2017-11-04T15:50:20.464Z,12.20
2017-11-04T15:52:47.948Z,12.20
2017-11-04T15:55:16.190Z,12.00
2017-11-04T15:57:43.683Z,12.00
2017-11-04T16:00:11.921Z,11.90
2017-11-04T16:02:39.418Z,11.90
2017-11-04T16:05:07.678Z,11.70
2017-11-04T16:07:35.159Z,11.80
2017-11-04T16:10:03.421Z,11.60
2017-11-04T16:12:31.684Z,11.60
2017-11-04T16:15:01.542Z,11.50
2017-11-04T16:17:29.025Z,11.50
2017-11-04T16:19:56.518Z,11.50
2017-11-04T16:22:24.027Z,11.40
2017-11-04T16:24:51.507Z,11.30
2017-11-04T16:27:19.023Z,11.30
2017-11-04T16:29:46.511Z,11.30
2017-11-04T16:32:14.015Z,11.20
2017-11-04T16:34:42.265Z,11.20
2017-11-04T16:37:09.752Z,11.20
2017-11-04T16:39:37.995Z,11.10
2017-11-04T16:42:05.481Z,11.10
2017-11-04T16:44:33.730Z,11.00
2017-11-04T16:47:01.220Z,11.00
2017-11-04T16:49:29.509Z,11.00
2017-11-04T16:51:57.784Z,11.00
2017-11-04T16:54:26.042Z,11.00
2017-11-04T16:56:53.517Z,11.00
2017-11-04T16:59:21.768Z,10.90
2017-11-04T17:01:49.300Z,10.90
2017-11-04T17:04:16.797Z,10.90
2017-11-04T17:06:44.272Z,10.90
2017-11-04T17:09:12.543Z,11.00
2017-11-04T17:11:40.793Z,11.00
2017-11-04T17:14:08.360Z,11.00
2017-11-04T17:16:35.972Z,11.00
2017-11-04T17:19:03.471Z,11.00
2017-11-04T17:21:30.953Z,10.90
2017-11-04T17:23:59.232Z,10.90
2017-11-04T17:26:27.513Z,10.90
2017-11-04T17:28:55.108Z,10.90
2017-11-04T17:31:22.650Z,10.90
2017-11-04T17:33:50.214Z,10.90
2017-11-04T17:36:17.689Z,10.90
2017-11-04T17:38:45.201Z,10.90
2017-11-04T17:41:13.449Z,11.00
2017-11-04T17:43:41.229Z,11.00
2017-11-04T17:46:08.704Z,11.00
2017-11-04T17:48:36.986Z,11.00
2017-11-04T17:51:04.474Z,11.00
2017-11-04T17:53:31.995Z,11.00
2017-11-04T17:56:00.261Z,11.00
2017-11-04T17:58:28.501Z,11.00
2017-11-04T18:00:56.938Z,10.90
2017-11-04T18:03:24.454Z,10.90
2017-11-04T18:05:51.970Z,10.90
2017-11-04T18:08:19.448Z,11.00
2017-11-04T18:10:46.936Z,11.00
2017-11-04T18:13:15.029Z,11.10
2017-11-04T18:15:43.291Z,11.10
2017-11-04T18:18:10.793Z,11.10
2017-11-04T18:20:39.050Z,11.20
2017-11-04T18:23:07.289Z,11.20
2017-11-04T18:25:34.790Z,11.20
2017-11-04T18:28:02.280Z,11.20
2017-11-04T18:30:29.840Z,11.40
2017-11-04T18:32:57.352Z,11.30
2017-11-04T18:35:25.622Z,11.30
2017-11-04T18:37:53.873Z,11.30
2017-11-04T18:40:21.491Z,11.30
2017-11-04T18:42:49.023Z,11.20
2017-11-04T18:45:17.276Z,11.20
2017-11-04T18:47:45.693Z,11.20
2017-11-04T18:50:13.287Z,11.20
2017-11-04T18:52:40.815Z,11.30
2017-11-04T18:55:08.342Z,11.20
2017-11-04T18:57:35.840Z,11.20
2017-11-04T19:00:04.103Z,11.10
2017-11-04T19:02:31.600Z,11.00
2017-11-04T19:04:59.146Z,11.00
2017-11-04T19:07:26.680Z,10.90
2017-11-04T19:09:54.934Z,11.00
2017-11-04T19:12:22.423Z,10.90
2017-11-04T19:14:49.904Z,10.90
2017-11-04T19:17:17.392Z,10.90
2017-11-04T19:19:44.923Z,10.80
2017-11-04T19:22:12.428Z,10.80
2017-11-04T19:24:40.732Z,10.80
2017-11-04T19:27:08.305Z,10.80
2017-11-04T19:29:35.838Z,10.90
2017-11-04T19:32:03.329Z,10.80
2017-11-04T19:34:30.849Z,10.90
2017-11-04T19:36:59.092Z,10.80
2017-11-04T19:39:26.581Z,10.80
2017-11-04T19:41:54.857Z,10.70
2017-11-04T19:44:23.118Z,10.60
2017-11-04T19:46:50.597Z,10.60
2017-11-04T19:49:18.848Z,10.50
2017-11-04T19:51:47.144Z,10.50
2017-11-04T19:54:16.123Z,10.40
2017-11-04T19:56:45.149Z,10.40
2017-11-04T19:59:12.669Z,10.30
2017-11-04T20:01:40.163Z,10.30
2017-11-04T20:04:08.174Z,10.30
2017-11-04T20:06:35.651Z,10.30
2017-11-04T20:09:03.142Z,10.20
2017-11-04T20:11:32.419Z,10.10
2017-11-04T20:13:59.925Z,10.10
2017-11-04T20:16:27.492Z,10.10
2017-11-04T20:18:55.024Z,10.00
2017-11-04T20:21:22.513Z,10.00
2017-11-04T20:23:50.006Z,10.00
2017-11-04T20:26:17.543Z,9.90
2017-11-04T20:28:45.091Z,9.90
2017-11-04T20:31:12.585Z,9.90
2017-11-04T20:33:40.149Z,9.90
2017-11-04T20:36:07.644Z,9.80
2017-11-04T20:38:35.125Z,9.80
2017-11-04T20:41:02.683Z,9.80
2017-11-04T20:43:30.166Z,9.70
2017-11-04T20:45:57.666Z,9.80
2017-11-04T20:48:25.153Z,9.70
2017-11-04T20:50:53.003Z,9.70
2017-11-04T20:53:20.478Z,9.80
2017-11-04T20:55:48.020Z,9.80
2017-11-04T20:58:15.495Z,9.80
2017-11-04T21:00:42.969Z,9.80
2017-11-04T21:03:12.983Z,9.90
2017-11-04T21:08:44.443Z,9.90
2017-11-04T21:11:14.211Z,10.00
2017-11-04T21:13:41.756Z,10.00
2017-11-04T21:16:09.639Z,10.00
2017-11-04T21:18:39.073Z,9.90
2017-11-04T21:21:06.842Z,9.90
2017-11-04T21:23:35.352Z,9.90
2017-11-04T21:26:02.981Z,9.90
2017-11-04T21:28:30.495Z,9.80
2017-11-04T21:30:58.008Z,9.80
2017-11-04T21:33:26.342Z,9.80
2017-11-04T21:35:53.860Z,9.80
2017-11-04T21:38:21.359Z,9.80
2017-11-04T21:40:48.876Z,9.80
2017-11-04T21:43:16.456Z,9.70
2017-11-04T21:45:43.996Z,9.70
2017-11-04T21:48:12.297Z,9.70
2017-11-04T21:50:39.801Z,9.70
2017-11-04T21:53:07.375Z,9.70
2017-11-04T21:55:35.676Z,9.60
2017-11-04T21:58:03.246Z,9.60
2017-11-04T22:00:30.796Z,9.60
2017-11-04T22:02:59.119Z,9.60
2017-11-04T22:05:26.622Z,9.60
2017-11-04T22:07:54.134Z,9.50
2017-11-04T22:10:21.679Z,9.50
2017-11-04T22:12:49.229Z,9.50
2017-11-04T22:15:16.748Z,9.50
2017-11-04T22:17:45.066Z,9.40
2017-11-04T22:20:12.594Z,9.40
2017-11-04T22:22:40.136Z,9.40
2017-11-04T22:25:08.392Z,9.30
2017-11-04T22:27:35.887Z,9.30
2017-11-04T22:30:04.139Z,9.30
2017-11-04T22:32:31.653Z,9.30
2017-11-04T22:34:59.197Z,9.30
2017-11-04T22:37:26.761Z,9.20
2017-11-04T22:39:54.288Z,9.20
2017-11-04T22:42:22.560Z,9.20
2017-11-04T22:44:50.864Z,9.10
2017-11-04T22:47:18.373Z,9.10
2017-11-04T22:49:47.359Z,9.10
2017-11-04T22:52:14.920Z,9.10
2017-11-04T22:54:42.472Z,9.20
2017-11-04T22:57:09.981Z,9.20
2017-11-04T22:59:37.471Z,9.20
2017-11-04T23:02:04.981Z,9.20
2017-11-04T23:04:33.257Z,9.30
2017-11-04T23:07:01.533Z,9.30
2017-11-04T23:09:29.785Z,9.30
2017-11-04T23:11:57.292Z,9.30
2017-11-04T23:14:24.784Z,9.30
2017-11-04T23:16:52.295Z,9.30
2017-11-04T23:19:20.558Z,9.20
2017-11-04T23:21:48.096Z,9.20
2017-11-04T23:24:15.624Z,9.20
2017-11-04T23:26:43.119Z,9.10
2017-11-04T23:29:11.387Z,9.10
2017-11-04T23:31:38.868Z,9.10
2017-11-04T23:34:07.141Z,9.10
2017-11-04T23:36:35.393Z,9.10
2017-11-04T23:39:02.902Z,9.10
2017-11-04T23:41:30.404Z,9.10
2017-11-04T23:43:57.904Z,9.10
2017-11-04T23:46:26.165Z,9.20
2017-11-04T23:48:53.671Z,9.20
2017-11-04T23:51:21.165Z,9.20
2017-11-04T23:53:48.678Z,9.20
2017-11-04T23:56:16.152Z,9.30
2017-11-04T23:58:43.666Z,9.30
